createdAt,value
2022-10-23T00:01:24.624Z,95.53
2022-10-23T00:03:55.373Z,95.36
2022-10-23T00:06:23.324Z,95.20
2022-10-23T00:08:51.219Z,95.35
2022-10-23T00:11:22.392Z,94.59
2022-10-23T00:13:51.201Z,94.88
2022-10-23T00:16:19.217Z,95.34
2022-10-23T00:18:46.875Z,95.03
2022-10-23T00:21:15.863Z,95.24
2022-10-23T00:23:44.522Z,95.59
2022-10-23T00:26:12.835Z,96.22
2022-10-23T00:28:40.542Z,96.05
2022-10-23T00:31:08.459Z,95.17
2022-10-23T00:33:41.579Z,94.97
2022-10-23T00:36:11.837Z,94.31
2022-10-23T00:38:39.810Z,96.86
2022-10-23T00:41:09.467Z,95.87
2022-10-23T00:43:55.943Z,97.77
2022-10-23T00:46:23.961Z,98.17
2022-10-23T00:48:52.080Z,98.84
2022-10-23T00:51:19.940Z,99.05
2022-10-23T00:54:00.962Z,99.31
2022-10-23T00:56:39.720Z,99.56
2022-10-23T00:59:07.654Z,100.00
2022-10-23T01:01:35.488Z,100.00
2022-10-23T01:04:05.308Z,100.00
2022-10-23T01:06:58.901Z,100.00
2022-10-23T01:09:44.979Z,100.00
2022-10-23T01:12:18.272Z,100.00
2022-10-23T01:14:52.821Z,100.00
2022-10-23T01:17:35.882Z,100.00
2022-10-23T01:20:10.842Z,99.00
2022-10-23T01:22:46.768Z,98.80
2022-10-23T01:25:28.239Z,98.65
2022-10-23T01:27:56.486Z,97.85
2022-10-23T01:30:24.351Z,96.64
2022-10-23T01:32:59.474Z,95.80
2022-10-23T01:35:35.061Z,96.23
2022-10-23T01:38:11.991Z,97.17
2022-10-23T01:40:50.703Z,99.38
2022-10-23T01:43:22.646Z,100.00
2022-10-23T01:45:57.898Z,100.00
2022-10-23T01:48:28.510Z,100.00
2022-10-23T01:50:59.195Z,100.00
2022-10-23T01:53:29.309Z,100.00
2022-10-23T01:55:59.307Z,99.93
2022-10-23T01:58:28.336Z,99.25
2022-10-23T02:00:58.957Z,99.19
2022-10-23T02:03:29.767Z,98.17
2022-10-23T02:05:57.843Z,98.48
2022-10-23T02:08:25.621Z,97.64
2022-10-23T02:11:16.160Z,97.37
2022-10-23T02:13:59.283Z,97.39
2022-10-23T02:16:39.089Z,97.17
2022-10-23T02:19:20.031Z,96.69
2022-10-23T02:21:56.076Z,96.91
2022-10-23T02:24:41.237Z,96.47
2022-10-23T02:27:15.682Z,97.35
2022-10-23T02:29:46.898Z,99.49
2022-10-23T02:32:15.755Z,100.00
2022-10-23T02:34:44.056Z,100.00
2022-10-23T02:37:11.900Z,100.00
2022-10-23T02:39:40.429Z,100.00
2022-10-23T02:42:10.338Z,100.00
2022-10-23T02:45:19.722Z,100.00
2022-10-23T02:47:55.776Z,99.83
2022-10-23T02:50:33.346Z,99.69
2022-10-23T02:53:33.890Z,100.00
2022-10-23T02:56:03.325Z,100.00
2022-10-23T02:58:45.011Z,100.00
2022-10-23T03:01:21.668Z,100.00
2022-10-23T03:03:53.693Z,100.00
2022-10-23T03:06:22.711Z,99.83
2022-10-23T03:08:58.484Z,99.52
2022-10-23T03:11:26.338Z,99.11
2022-10-23T03:13:55.606Z,99.34
2022-10-23T03:16:23.279Z,100.00
2022-10-23T03:18:51.747Z,100.00
2022-10-23T03:21:19.790Z,100.00
2022-10-23T03:23:49.736Z,99.74
2022-10-23T03:26:17.945Z,99.30
2022-10-23T03:28:45.964Z,99.60
2022-10-23T03:31:13.642Z,99.03
2022-10-23T03:33:41.527Z,99.24
2022-10-23T03:36:09.827Z,99.76
2022-10-23T03:38:37.505Z,99.30
2022-10-23T03:41:05.510Z,99.05
2022-10-23T03:43:33.543Z,99.52
2022-10-23T03:46:01.168Z,100.00
2022-10-23T03:48:28.831Z,100.00
2022-10-23T03:50:57.973Z,99.37
2022-10-23T03:53:25.627Z,100.00
2022-10-23T03:55:53.639Z,100.00
2022-10-23T03:58:21.507Z,99.56
2022-10-23T04:00:49.486Z,99.12
2022-10-23T04:03:17.450Z,98.81
2022-10-23T04:05:45.108Z,98.32
2022-10-23T04:08:16.344Z,97.61
2022-10-23T04:10:49.656Z,96.34
2022-10-23T04:13:19.749Z,95.88
2022-10-23T04:15:52.090Z,97.20
2022-10-23T04:18:20.128Z,98.19
2022-10-23T04:20:48.724Z,97.84
2022-10-23T04:23:16.718Z,97.77
2022-10-23T04:25:45.282Z,97.14
2022-10-23T04:28:13.450Z,96.79
2022-10-23T04:30:41.747Z,96.91
2022-10-23T04:33:10.175Z,97.74
2022-10-23T04:35:38.029Z,98.67
2022-10-23T04:38:05.654Z,98.17
2022-10-23T04:40:33.811Z,97.33
2022-10-23T04:43:01.483Z,96.35
2022-10-23T04:45:32.026Z,95.25
2022-10-23T04:47:59.961Z,95.32
2022-10-23T04:50:28.816Z,95.00
2022-10-23T04:53:06.215Z,95.85
2022-10-23T04:55:34.942Z,96.12
2022-10-23T04:58:04.566Z,95.39
2022-10-23T05:00:33.302Z,94.89
2022-10-23T05:03:01.646Z,94.05
2022-10-23T05:05:30.947Z,95.61
2022-10-23T05:07:59.045Z,97.49
2022-10-23T05:10:26.929Z,98.81
2022-10-23T05:12:54.854Z,100.00
2022-10-23T05:15:22.779Z,100.00
2022-10-23T05:17:54.719Z,100.00
2022-10-23T05:20:25.527Z,100.00
2022-10-23T05:22:54.502Z,100.00
2022-10-23T05:25:24.456Z,100.00
2022-10-23T05:27:52.508Z,100.00
2022-10-23T05:30:20.182Z,100.00
2022-10-23T05:32:48.563Z,100.00
2022-10-23T05:35:19.975Z,100.00
2022-10-23T05:37:50.849Z,100.00
2022-10-23T05:40:18.638Z,100.00
2022-10-23T05:42:46.756Z,100.00
2022-10-23T05:45:15.397Z,100.00
2022-10-23T05:47:46.400Z,100.00
2022-10-23T05:50:16.245Z,100.00
2022-10-23T05:52:48.637Z,100.00
2022-10-23T05:55:16.864Z,100.00
2022-10-23T05:57:45.750Z,100.00
2022-10-23T06:00:14.860Z,100.00
2022-10-23T06:02:42.368Z,100.00
2022-10-23T06:05:11.249Z,100.00
2022-10-23T06:07:40.224Z,100.00
2022-10-23T06:10:08.260Z,100.00
2022-10-23T06:12:36.685Z,100.00
2022-10-23T06:15:05.238Z,100.00
2022-10-23T06:17:35.261Z,100.00
2022-10-23T06:20:03.706Z,100.00
2022-10-23T06:22:33.648Z,100.00
2022-10-23T06:25:02.634Z,100.00
2022-10-23T06:27:30.959Z,100.00
2022-10-23T06:29:58.599Z,100.00
2022-10-23T06:32:26.313Z,100.00
2022-10-23T06:34:54.650Z,100.00
2022-10-23T06:37:22.378Z,100.00
2022-10-23T06:39:50.215Z,100.00
2022-10-23T06:42:18.343Z,100.00
2022-10-23T06:44:50.827Z,100.00
2022-10-23T06:47:21.907Z,100.00
2022-10-23T06:49:52.776Z,100.00
2022-10-23T06:52:45.254Z,100.00
2022-10-23T06:55:08.971Z,100.00
2022-10-23T06:57:37.737Z,100.00
2022-10-23T07:00:07.718Z,100.00
2022-10-23T07:02:37.545Z,100.00
2022-10-23T07:05:09.955Z,100.00
2022-10-23T07:07:41.726Z,100.00
2022-10-23T07:10:10.907Z,100.00
2022-10-23T07:12:38.999Z,100.00
2022-10-23T07:15:08.064Z,100.00
2022-10-23T07:17:35.961Z,100.00
2022-10-23T07:20:04.188Z,100.00
2022-10-23T07:22:32.045Z,100.00
2022-10-23T07:25:01.959Z,100.00
2022-10-23T07:27:31.036Z,100.00
2022-10-23T07:29:58.951Z,100.00
2022-10-23T07:32:29.501Z,100.00
2022-10-23T07:35:02.298Z,100.00
2022-10-23T07:37:30.646Z,100.00
2022-10-23T07:39:58.634Z,100.00
2022-10-23T07:42:26.400Z,100.00
2022-10-23T07:44:54.435Z,100.00
2022-10-23T07:47:22.227Z,100.00
2022-10-23T07:49:50.559Z,100.00
2022-10-23T07:52:20.844Z,100.00
2022-10-23T07:54:51.662Z,100.00
2022-10-23T07:57:20.304Z,100.00
2022-10-23T07:59:48.066Z,100.00
2022-10-23T08:02:16.542Z,100.00
2022-10-23T08:04:44.813Z,100.00
2022-10-23T08:07:12.816Z,100.00
2022-10-23T08:09:40.849Z,100.00
2022-10-23T08:12:12.496Z,100.00
2022-10-23T08:14:40.576Z,100.00
2022-10-23T08:17:08.955Z,100.00
2022-10-23T08:19:40.186Z,100.00
2022-10-23T08:22:08.207Z,100.00
2022-10-23T08:24:36.106Z,100.00
2022-10-23T08:27:04.361Z,100.00
2022-10-23T08:29:35.607Z,100.00
2022-10-23T08:32:03.632Z,100.00
2022-10-23T08:34:32.235Z,100.00
2022-10-23T08:37:00.950Z,100.00
2022-10-23T08:39:28.940Z,100.00
2022-10-23T08:41:57.120Z,100.00
2022-10-23T08:44:26.522Z,100.00
2022-10-23T08:47:12.535Z,100.00
2022-10-23T08:49:47.432Z,100.00
2022-10-23T08:52:24.339Z,100.00
2022-10-23T08:54:59.622Z,100.00
2022-10-23T08:57:30.378Z,100.00
2022-10-23T09:00:11.363Z,100.00
2022-10-23T09:02:43.742Z,100.00
2022-10-23T09:05:18.537Z,100.00
2022-10-23T09:08:00.208Z,100.00
2022-10-23T09:10:40.243Z,100.00
2022-10-23T09:13:26.462Z,100.00
2022-10-23T09:16:21.668Z,100.00
2022-10-23T09:18:49.863Z,100.00
2022-10-23T09:21:17.810Z,100.00
2022-10-23T09:23:45.418Z,100.00
2022-10-23T09:26:16.296Z,100.00
2022-10-23T09:28:49.799Z,100.00
2022-10-23T09:31:18.911Z,100.00
2022-10-23T09:33:57.319Z,100.00
2022-10-23T09:36:26.195Z,100.00
2022-10-23T09:38:56.600Z,100.00
2022-10-23T09:41:38.653Z,100.00
2022-10-23T09:44:22.728Z,100.00
2022-10-23T09:46:52.615Z,100.00
2022-10-23T09:49:24.965Z,100.00
2022-10-23T09:52:12.931Z,100.00
2022-10-23T09:54:53.527Z,100.00
2022-10-23T09:57:45.686Z,100.00
2022-10-23T10:00:20.027Z,100.00
2022-10-23T10:02:58.736Z,100.00
2022-10-23T10:05:30.225Z,100.00
2022-10-23T10:08:20.970Z,100.00
2022-10-23T10:10:54.337Z,100.00
2022-10-23T10:13:52.913Z,100.00
2022-10-23T10:16:33.533Z,100.00
2022-10-23T10:19:01.540Z,100.00
2022-10-23T10:21:43.939Z,100.00
2022-10-23T10:24:17.874Z,100.00
2022-10-23T10:26:58.391Z,100.00
2022-10-23T10:29:58.307Z,100.00
2022-10-23T10:32:54.989Z,100.00
2022-10-23T10:35:55.336Z,100.00
2022-10-23T10:38:24.210Z,100.00
2022-10-23T10:41:24.291Z,100.00
2022-10-23T10:44:21.564Z,100.00
2022-10-23T10:47:02.551Z,100.00
2022-10-23T10:49:49.250Z,98.25
2022-10-23T10:52:45.434Z,95.98
2022-10-23T10:55:23.286Z,93.55
2022-10-23T10:57:59.286Z,96.79
2022-10-23T11:00:30.078Z,94.75
2022-10-23T11:03:01.253Z,95.47
2022-10-23T11:05:34.841Z,95.75
2022-10-23T11:08:18.990Z,93.11
2022-10-23T11:10:49.497Z,94.39
2022-10-23T11:13:38.062Z,92.00
2022-10-23T11:16:49.045Z,88.43
2022-10-23T11:19:27.643Z,85.10
2022-10-23T11:22:25.104Z,87.45
2022-10-23T11:25:05.385Z,90.17
2022-10-23T11:27:52.046Z,89.10
2022-10-23T11:30:25.955Z,88.76
2022-10-23T11:33:21.582Z,91.05
2022-10-23T11:36:11.350Z,87.87
2022-10-23T11:38:40.889Z,85.59
2022-10-23T11:41:22.284Z,83.47
2022-10-23T11:43:58.999Z,82.81
2022-10-23T11:46:26.883Z,80.10
2022-10-23T11:48:55.563Z,79.92
2022-10-23T11:51:36.425Z,82.22
2022-10-23T11:54:24.540Z,80.36
2022-10-23T11:57:10.381Z,81.98
2022-10-23T11:59:48.130Z,81.41
2022-10-23T12:02:32.611Z,80.39
2022-10-23T12:05:23.630Z,78.88
2022-10-23T12:07:54.670Z,80.16
2022-10-23T12:10:25.600Z,77.17
2022-10-23T12:13:04.313Z,77.71
2022-10-23T12:15:35.781Z,77.40
2022-10-23T12:18:29.504Z,76.98
2022-10-23T12:20:59.026Z,78.25
2022-10-23T12:23:54.525Z,77.19
2022-10-23T12:26:42.584Z,76.98
2022-10-23T12:29:25.509Z,76.30
2022-10-23T12:32:11.728Z,76.21
2022-10-23T12:34:47.164Z,75.73
2022-10-23T12:37:33.749Z,75.30
2022-10-23T12:40:01.451Z,75.34
2022-10-23T12:42:29.729Z,74.85
2022-10-23T12:45:04.310Z,75.77
2022-10-23T12:47:33.087Z,75.12
2022-10-23T12:50:00.951Z,73.65
2022-10-23T12:52:28.761Z,74.11
2022-10-23T12:54:56.867Z,74.19
2022-10-23T12:57:26.711Z,73.65
2022-10-23T13:00:02.673Z,73.92
2022-10-23T13:02:32.345Z,74.42
2022-10-23T13:05:03.773Z,74.18
2022-10-23T13:07:34.554Z,75.20
2022-10-23T13:10:04.494Z,76.17
2022-10-23T13:12:37.535Z,77.15
2022-10-23T13:15:08.196Z,76.26
2022-10-23T13:17:53.438Z,76.54
2022-10-23T13:20:32.885Z,77.01
2022-10-23T13:23:18.838Z,76.57
2022-10-23T13:25:59.800Z,77.37
2022-10-23T13:28:33.896Z,77.78
2022-10-23T13:31:25.608Z,78.40
2022-10-23T13:33:59.820Z,77.97
2022-10-23T13:36:35.064Z,77.86
2022-10-23T13:39:09.263Z,77.67
2022-10-23T13:41:40.816Z,77.21
2022-10-23T13:44:13.143Z,77.83
2022-10-23T13:46:41.545Z,77.38
2022-10-23T13:49:10.005Z,78.07
2022-10-23T13:51:44.591Z,78.07
2022-10-23T13:54:22.345Z,78.18
2022-10-23T13:56:51.070Z,78.34
2022-10-23T13:59:19.685Z,78.40
2022-10-23T14:01:49.315Z,77.62
2022-10-23T14:04:18.815Z,77.98
2022-10-23T14:06:46.726Z,78.14
2022-10-23T14:09:16.690Z,78.51
2022-10-23T14:11:44.946Z,78.92
2022-10-23T14:14:13.033Z,79.62
2022-10-23T14:16:40.841Z,80.04
2022-10-23T14:19:09.329Z,80.18
2022-10-23T14:21:36.891Z,80.06
2022-10-23T14:24:04.516Z,79.86
2022-10-23T14:26:32.787Z,79.59
2022-10-23T14:29:04.214Z,80.10
2022-10-23T14:31:36.427Z,79.89
2022-10-23T14:34:03.997Z,79.93
2022-10-23T14:36:38.871Z,79.64
2022-10-23T14:39:18.723Z,79.97
2022-10-23T14:41:47.360Z,79.64
2022-10-23T14:44:15.243Z,79.34
2022-10-23T14:46:43.232Z,79.79
2022-10-23T14:49:10.949Z,79.43
2022-10-23T14:51:38.791Z,79.56
2022-10-23T14:54:07.884Z,79.22
2022-10-23T14:56:37.364Z,79.84
2022-10-23T14:59:05.176Z,80.64
2022-10-23T15:01:36.252Z,81.29
2022-10-23T15:04:04.349Z,81.47
2022-10-23T15:06:33.621Z,81.59
2022-10-23T15:09:02.870Z,81.74
2022-10-23T15:11:30.865Z,82.09
2022-10-23T15:13:59.810Z,82.16
2022-10-23T15:16:28.193Z,82.29
2022-10-23T15:18:56.104Z,82.46
2022-10-23T15:21:24.643Z,82.92
2022-10-23T15:23:53.311Z,82.73
2022-10-23T15:26:21.607Z,82.09
2022-10-23T15:28:54.278Z,82.28
2022-10-23T15:31:37.282Z,81.95
2022-10-23T15:34:08.240Z,81.73
2022-10-23T15:36:36.459Z,81.93
2022-10-23T15:39:07.833Z,81.80
2022-10-23T15:41:37.504Z,81.48
2022-10-23T15:44:06.665Z,81.07
2022-10-23T15:46:34.964Z,81.19
2022-10-23T15:49:05.158Z,80.85
2022-10-23T15:51:34.248Z,80.85
2022-10-23T15:54:01.981Z,80.88
2022-10-23T15:56:29.777Z,80.39
2022-10-23T15:58:57.858Z,80.54
2022-10-23T16:01:28.355Z,80.89
2022-10-23T16:03:56.276Z,81.20
2022-10-23T16:06:24.085Z,81.71
2022-10-23T16:11:27.847Z,82.41
2022-10-23T16:13:56.848Z,82.35
2022-10-23T16:16:25.532Z,82.40
2022-10-23T16:18:53.683Z,83.89
2022-10-23T16:21:23.867Z,84.50
2022-10-23T16:23:52.928Z,84.65
2022-10-23T16:26:24.148Z,84.53
2022-10-23T16:28:57.209Z,84.87
2022-10-23T16:31:25.759Z,85.24
2022-10-23T16:36:30.693Z,85.74
2022-10-23T16:39:02.129Z,86.04
2022-10-23T16:41:43.585Z,85.36
2022-10-23T16:44:17.402Z,84.80
2022-10-23T16:46:46.903Z,85.73
2022-10-23T16:49:14.559Z,86.39
2022-10-23T16:51:42.492Z,86.41
2022-10-23T16:54:10.278Z,86.20
2022-10-23T16:56:38.020Z,86.79
2022-10-23T16:59:06.182Z,87.28
2022-10-23T17:01:34.691Z,87.03
2022-10-23T17:04:02.620Z,85.53
2022-10-23T17:06:32.201Z,84.94
2022-10-23T17:09:01.032Z,84.68
2022-10-23T17:11:35.587Z,84.40
2022-10-23T17:14:23.841Z,84.02
2022-10-23T17:16:53.056Z,83.64
2022-10-23T17:22:13.082Z,84.60
2022-10-23T17:24:42.506Z,84.12
2022-10-23T17:27:10.617Z,84.61
2022-10-23T17:29:38.642Z,84.44
2022-10-23T17:32:06.862Z,84.25
2022-10-23T17:34:36.528Z,83.74
2022-10-23T17:37:05.951Z,83.97
2022-10-23T17:39:34.398Z,83.73
2022-10-23T17:42:02.248Z,84.23
2022-10-23T17:44:30.126Z,84.26
2022-10-23T17:46:58.388Z,84.38
2022-10-23T17:49:26.276Z,84.27
2022-10-23T17:51:56.660Z,84.48
2022-10-23T17:54:25.688Z,85.38
2022-10-23T17:56:55.118Z,84.75
2022-10-23T17:59:23.346Z,85.34
2022-10-23T18:01:51.740Z,86.38
2022-10-23T18:04:21.105Z,85.88
2022-10-23T18:06:51.756Z,85.04
2022-10-23T18:09:20.944Z,86.02
2022-10-23T18:11:51.243Z,85.49
2022-10-23T18:14:20.422Z,86.19
2022-10-23T18:16:48.807Z,85.93
2022-10-23T18:19:19.990Z,86.34
2022-10-23T18:21:48.746Z,85.92
2022-10-23T18:24:18.181Z,86.79
2022-10-23T18:26:46.792Z,86.23
2022-10-23T18:29:16.825Z,87.18
2022-10-23T18:31:46.172Z,87.73
2022-10-23T18:34:15.759Z,86.26
2022-10-23T18:36:44.063Z,85.55
2022-10-23T18:39:14.821Z,85.51
2022-10-23T18:41:44.233Z,84.56
2022-10-23T18:44:16.780Z,84.02
2022-10-23T18:46:45.901Z,83.54
2022-10-23T18:49:14.357Z,82.29
2022-10-23T18:51:42.321Z,82.89
2022-10-23T18:54:14.691Z,82.92
2022-10-23T18:56:43.262Z,83.19
2022-10-23T18:59:14.084Z,83.81
2022-10-23T19:01:42.911Z,83.92
2022-10-23T19:04:12.071Z,83.92
2022-10-23T19:06:40.007Z,84.20
2022-10-23T19:09:09.796Z,84.66
2022-10-23T19:11:41.313Z,84.49
2022-10-23T19:14:09.363Z,84.23
2022-10-23T19:16:51.344Z,84.35
2022-10-23T19:19:23.386Z,84.40
2022-10-23T19:21:53.234Z,84.35
2022-10-23T19:24:24.612Z,84.26
2022-10-23T19:26:52.579Z,84.07
2022-10-23T19:29:23.475Z,83.76
2022-10-23T19:31:55.387Z,83.77
2022-10-23T19:34:24.077Z,83.92
2022-10-23T19:36:53.783Z,84.34
2022-10-23T19:39:22.406Z,84.55
2022-10-23T19:41:50.558Z,84.60
2022-10-23T19:44:20.994Z,84.67
2022-10-23T19:46:48.924Z,84.27
2022-10-23T19:49:17.553Z,84.55
2022-10-23T19:51:50.947Z,84.64
2022-10-23T19:54:20.765Z,84.63
2022-10-23T19:56:49.206Z,85.09
2022-10-23T19:59:17.304Z,86.60
2022-10-23T20:01:48.071Z,86.84
2022-10-23T20:04:18.342Z,87.07
2022-10-23T20:06:46.891Z,87.08
2022-10-23T20:09:14.758Z,86.33
2022-10-23T20:11:43.143Z,85.69
2022-10-23T20:14:12.564Z,85.78
2022-10-23T20:16:41.061Z,85.66
2022-10-23T20:19:11.322Z,85.59
2022-10-23T20:21:40.256Z,85.98
2022-10-23T20:24:09.024Z,86.01
2022-10-23T20:26:45.770Z,86.09
2022-10-23T20:29:14.065Z,87.01
2022-10-23T20:31:42.434Z,86.29
2022-10-23T20:34:11.143Z,86.07
2022-10-23T20:36:45.458Z,86.59
2022-10-23T20:39:20.567Z,86.36
2022-10-23T20:41:48.263Z,87.13
2022-10-23T20:44:19.474Z,86.77
2022-10-23T20:46:47.856Z,86.24
2022-10-23T20:49:16.423Z,86.68
2022-10-23T20:51:45.111Z,87.32
2022-10-23T20:54:12.798Z,87.02
2022-10-23T20:56:40.794Z,87.52
2022-10-23T20:59:14.245Z,86.95
2022-10-23T21:01:47.032Z,87.19
2022-10-23T21:04:17.259Z,87.88
2022-10-23T21:07:08.462Z,87.71
2022-10-23T21:09:33.532Z,87.93
2022-10-23T21:12:01.251Z,88.17
2022-10-23T21:14:28.879Z,89.35
2022-10-23T21:16:56.805Z,89.87
2022-10-23T21:19:24.697Z,90.46
2022-10-23T21:21:52.423Z,90.41
2022-10-23T21:24:20.399Z,90.59
2022-10-23T21:26:48.097Z,90.72
2022-10-23T21:29:19.891Z,91.83
2022-10-23T21:31:55.908Z,91.86
2022-10-23T21:34:24.885Z,91.72
2022-10-23T21:37:12.389Z,91.26
2022-10-23T21:39:44.044Z,91.41
2022-10-23T21:42:13.346Z,91.93
2022-10-23T21:44:41.155Z,90.96
2022-10-23T21:47:08.921Z,90.59
2022-10-23T21:49:36.854Z,91.23
2022-10-23T21:52:04.742Z,90.79
2022-10-23T21:54:32.753Z,90.47
2022-10-23T21:57:00.691Z,91.06
2022-10-23T21:59:30.259Z,92.20
2022-10-23T22:01:59.706Z,91.50
2022-10-23T22:04:27.783Z,91.72
2022-10-23T22:06:55.400Z,90.66
2022-10-23T22:09:23.247Z,91.36
2022-10-23T22:11:52.795Z,91.98
2022-10-23T22:14:20.915Z,92.19
2022-10-23T22:16:49.033Z,92.09
2022-10-23T22:19:18.124Z,92.95
2022-10-23T22:21:46.214Z,92.74
2022-10-23T22:24:14.122Z,92.69
2022-10-23T22:26:44.604Z,92.47
2022-10-23T22:29:14.513Z,91.71
2022-10-23T22:31:45.556Z,91.50
2022-10-23T22:34:47.970Z,91.69
2022-10-23T22:37:11.454Z,91.08
2022-10-23T22:39:39.319Z,92.03
2022-10-23T22:42:07.295Z,92.54
2022-10-23T22:44:35.301Z,92.29
2022-10-23T22:47:03.239Z,91.42
2022-10-23T22:49:30.818Z,91.63
2022-10-23T22:51:58.719Z,90.89
2022-10-23T22:54:26.487Z,93.08
2022-10-23T22:56:54.183Z,92.68
2022-10-23T22:59:22.232Z,93.14
2022-10-23T23:01:49.975Z,92.61
2022-10-23T23:04:36.585Z,92.59
2022-10-23T23:07:07.879Z,92.46
2022-10-23T23:09:42.027Z,92.21
2022-10-23T23:12:12.144Z,92.13
2022-10-23T23:14:40.203Z,91.34
2022-10-23T23:17:08.475Z,91.75
2022-10-23T23:19:36.868Z,91.56
2022-10-23T23:22:04.689Z,91.57
2022-10-23T23:24:32.545Z,91.62
2022-10-23T23:27:00.452Z,92.53
2022-10-23T23:29:28.211Z,92.41
2022-10-23T23:31:55.766Z,91.96
2022-10-23T23:34:23.872Z,91.82
2022-10-23T23:36:51.459Z,91.74
2022-10-23T23:39:19.148Z,92.37
2022-10-23T23:41:47.013Z,92.47
2022-10-23T23:44:14.818Z,93.22
2022-10-23T23:46:42.407Z,93.69
2022-10-23T23:49:10.379Z,92.41
2022-10-23T23:51:38.019Z,92.49
2022-10-23T23:54:05.605Z,92.33
2022-10-23T23:56:33.663Z,92.66
2022-10-23T23:59:01.503Z,93.29
